Huvudsida
METAR-TAF:

METAR-TAF

Flygplatser :

Joensuu flygplats

Joensuu, Finland

latitud: 62-40N, longitud: 029-38E, höjd: 119 m

Aktuellt väderrapport

Denna rapport gjordes för 17 minuter sedan, klockan 13:50 UTC
Vind 9 kt från syd/sydost, varierande mellan sydost och syd/sydväst
Temperatur 14°C
Fuktighet 88%
Tryck 998 hPa
Sikt 10 km eller mer
Få moln på en höjd av 1600 ft
Mulet på en höjd av 3100 ft
regn

METAR: EFJO 191350Z AUTO 16009KT 130V200 9999 RA FEW016 OVC031 14/12 Q0998

Tid: 17:07 (14:07 UTC)

Väderprognos

Denna rapport gjordes för 2 timmar och 31 minuter sedan, klockan 11:36 UTC
Prognos gäller från 19 kl. 12 UTC till 19 kl. 16 UTC
Vind 10 kt från syd/sydost
Sikt 10 km eller mer
Inga moln under 1 500 m eller inga cumulonimbus
Temporärt
från 19 kl. 12 UTC till 19 kl. 16 UTC
Vind 12 kt från syd i byarna ända upp till 22 kt
Sikt: 5000 m
Brutna moln på en höjd av 4000 ft, Cumulonimbus.
regnskurar

TAF: EFJO 191136Z 1912/1916 16010KT CAVOK TEMPO 1912/1916 19012G22KT 5000 SHRA BKN040CB

Aktuella väderrapporter och prognoser från 4000 flygplatser (METAR- och TAF-rapporter).

De tillgängliga stationerna syns som gula och röda prickar på kartan.

För musen över prickarna för att se namnen på stationerna.

Klicka sedan för att få väderrapporter och prognoser.

För att ändra kartan: Klicka på de gröna knapparna med ett svart kors på för att zooma in; den gröna knappen med ett streck på för att zooma ut; eller på de gröna pilarna för angränsande kartor.


METAR-TAF: